Rhinelander Oneida County Airport
KRHI : now visible

Airfield :











YOU CAN JOIN US ON...

 
LOGIN :

Register | Disclaimer

   EN    FR    IT 

 









Legend :    VFR   Marginal VFR   IFR   Intensive IFR   Very Intensive IFR
Visi :
Ceiling :
>= 8 km
>= 3000ft
5 to 8 km
1000 to 3000 ft
1500m to 5 km
500 to 1000 ft
800 to 1500m
200 to 500 ft
< 800m
< 200 ft
Symbols :   Thunderstorms  Fog  Heavy snow  Heavy precipitations  Wind > 20 kt






- Airport Elevation : 1624 ft
- IATA code : RHI


KRHI - Rhinelander Oneida County

CURRENT METAR :
  • 241853Z AUTO VRB06KT 10SM CLR 18/M01 A3025 RMK AO2 SLP249 T01781006

EXPIRED METARs :
  • 241753Z AUTO 11006KT 10SM CLR 17/M01 A3026 RMK AO2 SLP252 T01721006 10172 20056 58013
  • 241653Z AUTO VRB03KT 10SM CLR 16/01 A3028 RMK AO2 SLP257 T01610006

TAF KRHI
Valid from the 24 at 18:00 until the 25 at 18:00 UTC


241720Z 2418/2518 14005KT P6SM SCT150
FM251200 09006KT P6SM OVC070
FM251500 08010G20KT P6SM OVC060
KZMP FIR / North America



MET'MAP, your aeronautical weather chart ! - Copyright ORBIFLY December 2007 - Disclaimer

ORBIFLY MET'MAP TEAM :

Programming & Development : Alexandra Zaïnal
Original concept : Baudouin d'Aumeries
Technical & hardware support : Manuel Goepfert
Assistance : Marc-Olivier Méhu

Contact : metmap@orbifly.com




SOURCES & CREDITS :

   NOAA       Earth
Advisory